sensor_id;sensor_type;location;lat;lon;timestamp;temperature;humidity
10336;DHT22;5213;53.548;9.930;2024-03-23T00:52:09;6.40;1.00
10336;DHT22;5213;53.548;9.930;2024-03-23T00:54:35;6.10;1.00
10336;DHT22;5213;53.548;9.930;2024-03-23T00:57:01;6.30;1.00
10336;DHT22;5213;53.548;9.930;2024-03-23T00:59:27;6.30;1.00
10336;DHT22;5213;53.548;9.930;2024-03-23T01:01:54;6.30;1.00
10336;DHT22;5213;53.548;9.930;2024-03-23T01:04:20;6.40;1.00
10336;DHT22;5213;53.548;9.930;2024-03-23T01:06:45;6.20;1.00
10336;DHT22;5213;53.548;9.930;2024-03-23T01:09:11;6.20;1.00
10336;DHT22;5213;53.548;9.930;2024-03-23T01:11:37;6.20;1.00
10336;DHT22;5213;53.548;9.930;2024-03-23T01:14:03;6.20;1.00
10336;DHT22;5213;53.548;9.930;2024-03-23T01:16:28;6.20;1.00
10336;DHT22;5213;53.548;9.930;2024-03-23T01:18:54;6.20;1.00
10336;DHT22;5213;53.548;9.930;2024-03-23T01:21:20;7.50;1.00
10336;DHT22;5213;53.548;9.930;2024-03-23T01:23:45;6.20;1.00
10336;DHT22;5213;53.548;9.930;2024-03-23T01:26:11;6.00;1.00
10336;DHT22;5213;53.548;9.930;2024-03-23T01:28:37;6.10;1.00
10336;DHT22;5213;53.548;9.930;2024-03-23T01:31:02;5.60;1.00
10336;DHT22;5213;53.548;9.930;2024-03-23T01:33:28;6.00;1.00
10336;DHT22;5213;53.548;9.930;2024-03-23T01:35:54;6.00;1.00
10336;DHT22;5213;53.548;9.930;2024-03-23T01:38:19;6.00;1.00
10336;DHT22;5213;53.548;9.930;2024-03-23T01:40:45;6.00;1.00
10336;DHT22;5213;53.548;9.930;2024-03-23T01:43:11;6.00;1.00
10336;DHT22;5213;53.548;9.930;2024-03-23T01:45:37;6.00;1.00
10336;DHT22;5213;53.548;9.930;2024-03-23T01:48:03;6.00;1.00
10336;DHT22;5213;53.548;9.930;2024-03-23T01:50:30;6.00;1.00
10336;DHT22;5213;53.548;9.930;2024-03-23T01:53:02;5.90;1.00
10336;DHT22;5213;53.548;9.930;2024-03-23T01:55:28;5.90;1.00
10336;DHT22;5213;53.548;9.930;2024-03-23T01:57:56;5.90;1.00
10336;DHT22;5213;53.548;9.930;2024-03-23T02:00:22;5.90;1.00
10336;DHT22;5213;53.548;9.930;2024-03-23T02:02:48;5.90;1.00
10336;DHT22;5213;53.548;9.930;2024-03-23T02:05:14;5.90;1.00
10336;DHT22;5213;53.548;9.930;2024-03-23T02:07:40;5.90;1.00
10336;DHT22;5213;53.548;9.930;2024-03-23T02:10:07;5.80;1.00
10336;DHT22;5213;53.548;9.930;2024-03-23T02:12:33;5.80;1.00
10336;DHT22;5213;53.548;9.930;2024-03-23T02:15:00;5.80;1.00
10336;DHT22;5213;53.548;9.930;2024-03-23T02:17:25;5.70;5.90
10336;DHT22;5213;53.548;9.930;2024-03-23T02:19:51;5.70;7.70
10336;DHT22;5213;53.548;9.930;2024-03-23T02:22:16;5.70;7.70
10336;DHT22;5213;53.548;9.930;2024-03-23T02:24:43;5.70;15.10
10336;DHT22;5213;53.548;9.930;2024-03-23T02:27:08;5.70;12.80
10336;DHT22;5213;53.548;9.930;2024-03-23T02:29:34;5.70;31.00
10336;DHT22;5213;53.548;9.930;2024-03-23T02:32:00;5.60;52.00
10336;DHT22;5213;53.548;9.930;2024-03-23T02:34:26;5.60;58.10
10336;DHT22;5213;53.548;9.930;2024-03-23T02:36:52;5.60;51.40
10336;DHT22;5213;53.548;9.930;2024-03-23T02:39:18;5.50;86.80
10336;DHT22;5213;53.548;9.930;2024-03-23T02:41:43;5.50;91.50
10336;DHT22;5213;53.548;9.930;2024-03-23T02:44:09;5.50;97.50
10336;DHT22;5213;53.548;9.930;2024-03-23T02:46:40;5.50;99.10
10336;DHT22;5213;53.548;9.930;2024-03-23T02:49:05;5.50;99.90
10336;DHT22;5213;53.548;9.930;2024-03-23T02:51:31;5.50;99.90
10336;DHT22;5213;53.548;9.930;2024-03-23T02:53:57;5.40;99.90
10336;DHT22;5213;53.548;9.930;2024-03-23T02:56:22;5.90;99.90
10336;DHT22;5213;53.548;9.930;2024-03-23T02:58:48;5.50;99.90
10336;DHT22;5213;53.548;9.930;2024-03-23T03:01:14;5.40;99.90
10336;DHT22;5213;53.548;9.930;2024-03-23T03:03:39;5.40;99.90
10336;DHT22;5213;53.548;9.930;2024-03-23T03:06:05;5.40;99.90
10336;DHT22;5213;53.548;9.930;2024-03-23T03:08:30;5.40;99.90
10336;DHT22;5213;53.548;9.930;2024-03-23T03:10:56;5.40;99.90
10336;DHT22;5213;53.548;9.930;2024-03-23T03:13:22;5.40;99.90
10336;DHT22;5213;53.548;9.930;2024-03-23T03:15:47;5.30;99.90
10336;DHT22;5213;53.548;9.930;2024-03-23T03:18:13;5.40;99.90
10336;DHT22;5213;53.548;9.930;2024-03-23T03:20:42;5.40;99.90
10336;DHT22;5213;53.548;9.930;2024-03-23T03:23:07;5.40;99.90
10336;DHT22;5213;53.548;9.930;2024-03-23T03:25:34;5.40;99.90
10336;DHT22;5213;53.548;9.930;2024-03-23T03:27:59;5.40;99.90
10336;DHT22;5213;53.548;9.930;2024-03-23T03:30:25;5.40;99.90
10336;DHT22;5213;53.548;9.930;2024-03-23T03:32:53;5.40;99.90
10336;DHT22;5213;53.548;9.930;2024-03-23T03:35:19;5.10;99.90
10336;DHT22;5213;53.548;9.930;2024-03-23T03:37:45;5.30;99.90
10336;DHT22;5213;53.548;9.930;2024-03-23T03:40:11;5.30;99.90
10336;DHT22;5213;53.548;9.930;2024-03-23T03:42:37;5.40;99.90
10336;DHT22;5213;53.548;9.930;2024-03-23T03:45:03;5.40;99.90
10336;DHT22;5213;53.548;9.930;2024-03-23T03:47:30;5.30;99.90
10336;DHT22;5213;53.548;9.930;2024-03-23T03:49:55;5.20;99.90
10336;DHT22;5213;53.548;9.930;2024-03-23T03:52:21;5.30;99.90
10336;DHT22;5213;53.548;9.930;2024-03-23T03:54:46;5.20;99.90
10336;DHT22;5213;53.548;9.930;2024-03-23T03:57:12;5.20;99.90
10336;DHT22;5213;53.548;9.930;2024-03-23T03:59:38;5.20;99.90
10336;DHT22;5213;53.548;9.930;2024-03-23T04:02:03;4.60;99.90
10336;DHT22;5213;53.548;9.930;2024-03-23T04:04:29;5.20;99.90
10336;DHT22;5213;53.548;9.930;2024-03-23T04:06:59;5.20;99.90
10336;DHT22;5213;53.548;9.930;2024-03-23T04:09:25;5.20;99.90
10336;DHT22;5213;53.548;9.930;2024-03-23T04:11:50;5.10;99.90
10336;DHT22;5213;53.548;9.930;2024-03-23T04:14:16;5.10;99.90
10336;DHT22;5213;53.548;9.930;2024-03-23T04:16:41;4.50;99.90
10336;DHT22;5213;53.548;9.930;2024-03-23T04:19:07;4.60;99.90
10336;DHT22;5213;53.548;9.930;2024-03-23T04:21:33;5.20;99.90
10336;DHT22;5213;53.548;9.930;2024-03-23T04:23:59;4.50;99.90
10336;DHT22;5213;53.548;9.930;2024-03-23T04:26:25;5.10;99.90
10336;DHT22;5213;53.548;9.930;2024-03-23T04:28:50;4.60;99.90
10336;DHT22;5213;53.548;9.930;2024-03-23T04:31:16;5.10;99.90
10336;DHT22;5213;53.548;9.930;2024-03-23T04:33:41;5.50;99.90
10336;DHT22;5213;53.548;9.930;2024-03-23T04:36:07;4.60;99.90
10336;DHT22;5213;53.548;9.930;2024-03-23T04:38:32;5.10;99.90
10336;DHT22;5213;53.548;9.930;2024-03-23T04:40:59;5.00;99.90
10336;DHT22;5213;53.548;9.930;2024-03-23T04:43:28;5.10;99.90
10336;DHT22;5213;53.548;9.930;2024-03-23T04:45:54;5.40;99.90
10336;DHT22;5213;53.548;9.930;2024-03-23T04:48:20;5.10;99.90
10336;DHT22;5213;53.548;9.930;2024-03-23T04:50:46;5.10;99.90
10336;DHT22;5213;53.548;9.930;2024-03-23T04:53:12;4.80;99.90
10336;DHT22;5213;53.548;9.930;2024-03-23T04:55:37;5.10;99.90
10336;DHT22;5213;53.548;9.930;2024-03-23T04:58:03;5.00;99.90
10336;DHT22;5213;53.548;9.930;2024-03-23T05:00:29;5.00;99.90
10336;DHT22;5213;53.548;9.930;2024-03-23T05:02:54;5.00;99.90
10336;DHT22;5213;53.548;9.930;2024-03-23T05:05:20;5.10;99.90
10336;DHT22;5213;53.548;9.930;2024-03-23T05:07:45;4.70;99.90
10336;DHT22;5213;53.548;9.930;2024-03-23T05:10:11;5.10;99.90
10336;DHT22;5213;53.548;9.930;2024-03-23T05:12:39;5.10;99.90
10336;DHT22;5213;53.548;9.930;2024-03-23T05:15:05;5.10;99.90
10336;DHT22;5213;53.548;9.930;2024-03-23T05:17:32;5.10;99.90
10336;DHT22;5213;53.548;9.930;2024-03-23T05:19:57;5.10;99.90
10336;DHT22;5213;53.548;9.930;2024-03-23T05:22:23;4.70;99.90
10336;DHT22;5213;53.548;9.930;2024-03-23T05:24:48;5.10;99.90
10336;DHT22;5213;53.548;9.930;2024-03-23T05:27:14;5.10;99.90
10336;DHT22;5213;53.548;9.930;2024-03-23T05:29:40;5.10;99.90
10336;DHT22;5213;53.548;9.930;2024-03-23T05:32:06;6.10;99.30
10336;DHT22;5213;53.548;9.930;2024-03-23T05:34:32;5.10;89.60
10336;DHT22;5213;53.548;9.930;2024-03-23T05:36:57;5.10;70.90
10336;DHT22;5213;53.548;9.930;2024-03-23T05:39:23;5.20;67.00
10336;DHT22;5213;53.548;9.930;2024-03-23T05:41:49;5.00;49.20
10336;DHT22;5213;53.548;9.930;2024-03-23T05:44:15;5.20;21.30
10336;DHT22;5213;53.548;9.930;2024-03-23T05:46:41;5.50;12.60
10336;DHT22;5213;53.548;9.930;2024-03-23T05:49:07;5.30;1.00
10336;DHT22;5213;53.548;9.930;2024-03-23T05:51:32;5.30;1.00
10336;DHT22;5213;53.548;9.930;2024-03-23T05:53:58;5.30;1.00
10336;DHT22;5213;53.548;9.930;2024-03-23T05:56:24;5.40;1.00
10336;DHT22;5213;53.548;9.930;2024-03-23T05:58:51;4.90;1.00
10336;DHT22;5213;53.548;9.930;2024-03-23T06:01:17;5.30;1.00
10336;DHT22;5213;53.548;9.930;2024-03-23T06:03:43;5.30;1.00
10336;DHT22;5213;53.548;9.930;2024-03-23T06:06:09;5.40;1.00
10336;DHT22;5213;53.548;9.930;2024-03-23T06:08:37;5.30;1.00
10336;DHT22;5213;53.548;9.930;2024-03-23T06:11:04;5.90;1.00
10336;DHT22;5213;53.548;9.930;2024-03-23T06:13:33;5.40;1.00
10336;DHT22;5213;53.548;9.930;2024-03-23T06:16:01;5.50;1.00
10336;DHT22;5213;53.548;9.930;2024-03-23T06:18:26;5.50;1.00
10336;DHT22;5213;53.548;9.930;2024-03-23T06:20:53;5.60;1.00
10336;DHT22;5213;53.548;9.930;2024-03-23T06:23:18;5.70;1.00
10336;DHT22;5213;53.548;9.930;2024-03-23T06:25:46;5.70;1.00
10336;DHT22;5213;53.548;9.930;2024-03-23T06:28:11;5.80;1.00
10336;DHT22;5213;53.548;9.930;2024-03-23T06:30:37;6.10;1.00
10336;DHT22;5213;53.548;9.930;2024-03-23T06:33:03;5.90;1.00
10336;DHT22;5213;53.548;9.930;2024-03-23T06:35:28;6.00;1.00
10336;DHT22;5213;53.548;9.930;2024-03-23T06:37:54;6.00;1.00
10336;DHT22;5213;53.548;9.930;2024-03-23T06:40:19;6.10;1.00
10336;DHT22;5213;53.548;9.930;2024-03-23T06:42:45;6.10;1.00
10336;DHT22;5213;53.548;9.930;2024-03-23T06:45:11;6.20;1.00
10336;DHT22;5213;53.548;9.930;2024-03-23T06:47:36;6.30;1.00
10336;DHT22;5213;53.548;9.930;2024-03-23T06:50:03;6.20;1.00
10336;DHT22;5213;53.548;9.930;2024-03-23T06:52:29;6.10;1.00
10336;DHT22;5213;53.548;9.930;2024-03-23T06:54:55;6.00;1.00
10336;DHT22;5213;53.548;9.930;2024-03-23T06:57:21;6.00;1.00
10336;DHT22;5213;53.548;9.930;2024-03-23T06:59:47;6.00;1.00
10336;DHT22;5213;53.548;9.930;2024-03-23T07:02:12;6.10;1.00
10336;DHT22;5213;53.548;9.930;2024-03-23T07:04:38;5.90;1.00
10336;DHT22;5213;53.548;9.930;2024-03-23T07:07:05;5.40;1.00
10336;DHT22;5213;53.548;9.930;2024-03-23T07:09:31;5.80;1.00
10336;DHT22;5213;53.548;9.930;2024-03-23T07:11:57;5.80;1.00
10336;DHT22;5213;53.548;9.930;2024-03-23T07:14:23;5.70;1.00
10336;DHT22;5213;53.548;9.930;2024-03-23T07:16:49;6.00;1.00
10336;DHT22;5213;53.548;9.930;2024-03-23T07:19:15;6.10;1.00
10336;DHT22;5213;53.548;9.930;2024-03-23T07:21:45;6.30;1.00
10336;DHT22;5213;53.548;9.930;2024-03-23T07:24:11;6.30;1.00
10336;DHT22;5213;53.548;9.930;2024-03-23T07:26:37;6.50;1.00
10336;DHT22;5213;53.548;9.930;2024-03-23T07:29:06;6.50;1.00
10336;DHT22;5213;53.548;9.930;2024-03-23T07:31:32;6.60;1.00
10336;DHT22;5213;53.548;9.930;2024-03-23T07:33:57;6.70;1.00
10336;DHT22;5213;53.548;9.930;2024-03-23T07:36:23;6.70;1.00
10336;DHT22;5213;53.548;9.930;2024-03-23T07:38:50;6.80;1.00
10336;DHT22;5213;53.548;9.930;2024-03-23T07:41:18;6.80;1.00
10336;DHT22;5213;53.548;9.930;2024-03-23T07:43:44;6.70;1.00
10336;DHT22;5213;53.548;9.930;2024-03-23T07:46:10;6.70;1.00
10336;DHT22;5213;53.548;9.930;2024-03-23T07:48:38;6.80;1.00
10336;DHT22;5213;53.548;9.930;2024-03-23T07:51:08;7.00;1.00
10336;DHT22;5213;53.548;9.930;2024-03-23T07:53:36;7.50;1.00
10336;DHT22;5213;53.548;9.930;2024-03-23T07:56:07;7.00;1.00
10336;DHT22;5213;53.548;9.930;2024-03-23T07:58:33;7.10;1.00
10336;DHT22;5213;53.548;9.930;2024-03-23T08:01:07;7.10;1.00
10336;DHT22;5213;53.548;9.930;2024-03-23T08:03:36;7.10;1.00
10336;DHT22;5213;53.548;9.930;2024-03-23T08:06:13;7.10;1.00
10336;DHT22;5213;53.548;9.930;2024-03-23T08:08:40;7.20;1.00
10336;DHT22;5213;53.548;9.930;2024-03-23T08:11:06;8.60;1.00
10336;DHT22;5213;53.548;9.930;2024-03-23T08:13:33;6.90;1.00
10336;DHT22;5213;53.548;9.930;2024-03-23T08:15:59;7.50;1.00
10336;DHT22;5213;53.548;9.930;2024-03-23T08:18:25;7.70;1.00
10336;DHT22;5213;53.548;9.930;2024-03-23T08:23:27;7.90;1.00
10336;DHT22;5213;53.548;9.930;2024-03-23T08:25:58;8.10;99.90
10336;DHT22;5213;53.548;9.930;2024-03-23T08:28:24;8.20;99.90
10336;DHT22;5213;53.548;9.930;2024-03-23T08:30:49;8.50;99.90
10336;DHT22;5213;53.548;9.930;2024-03-23T08:33:15;8.60;99.90
10336;DHT22;5213;53.548;9.930;2024-03-23T08:35:41;8.90;99.90
10336;DHT22;5213;53.548;9.930;2024-03-23T08:38:07;9.40;99.90
10336;DHT22;5213;53.548;9.930;2024-03-23T08:40:33;9.30;99.90
10336;DHT22;5213;53.548;9.930;2024-03-23T08:42:58;9.20;99.90
10336;DHT22;5213;53.548;9.930;2024-03-23T08:45:25;9.80;99.90
10336;DHT22;5213;53.548;9.930;2024-03-23T08:47:51;9.30;99.90
10336;DHT22;5213;53.548;9.930;2024-03-23T08:50:17;9.00;99.90
10336;DHT22;5213;53.548;9.930;2024-03-23T08:52:42;8.90;99.90
10336;DHT22;5213;53.548;9.930;2024-03-23T08:55:08;8.80;99.90
10336;DHT22;5213;53.548;9.930;2024-03-23T08:57:35;9.30;99.90
10336;DHT22;5213;53.548;9.930;2024-03-23T09:00:01;8.40;99.90
10336;DHT22;5213;53.548;9.930;2024-03-23T09:02:26;8.80;99.90
10336;DHT22;5213;53.548;9.930;2024-03-23T09:04:52;8.80;99.90
10336;DHT22;5213;53.548;9.930;2024-03-23T09:07:17;9.30;99.90
10336;DHT22;5213;53.548;9.930;2024-03-23T09:09:43;10.10;99.90
10336;DHT22;5213;53.548;9.930;2024-03-23T09:12:09;9.50;99.90
10336;DHT22;5213;53.548;9.930;2024-03-23T09:14:34;10.10;99.90
10336;DHT22;5213;53.548;9.930;2024-03-23T09:17:00;10.20;99.90
10336;DHT22;5213;53.548;9.930;2024-03-23T09:19:29;9.80;99.90
10336;DHT22;5213;53.548;9.930;2024-03-23T09:21:55;9.80;99.90
10336;DHT22;5213;53.548;9.930;2024-03-23T09:24:21;9.40;99.90
10336;DHT22;5213;53.548;9.930;2024-03-23T09:26:46;9.40;99.90
10336;DHT22;5213;53.548;9.930;2024-03-23T09:29:12;9.30;99.90
10336;DHT22;5213;53.548;9.930;2024-03-23T09:31:38;9.00;99.90
10336;DHT22;5213;53.548;9.930;2024-03-23T09:34:04;8.60;99.90
10336;DHT22;5213;53.548;9.930;2024-03-23T09:36:29;10.60;99.90
10336;DHT22;5213;53.548;9.930;2024-03-23T09:38:55;9.00;99.90
10336;DHT22;5213;53.548;9.930;2024-03-23T09:41:20;9.00;99.90
10336;DHT22;5213;53.548;9.930;2024-03-23T09:43:46;10.10;99.90
10336;DHT22;5213;53.548;9.930;2024-03-23T09:46:14;9.20;99.90
10336;DHT22;5213;53.548;9.930;2024-03-23T09:48:40;9.50;99.90
10336;DHT22;5213;53.548;9.930;2024-03-23T09:51:06;9.50;99.90
10336;DHT22;5213;53.548;9.930;2024-03-23T09:53:34;10.00;99.90
10336;DHT22;5213;53.548;9.930;2024-03-23T09:56:00;9.70;99.90
10336;DHT22;5213;53.548;9.930;2024-03-23T09:58:26;10.10;99.90
10336;DHT22;5213;53.548;9.930;2024-03-23T10:00:51;9.80;99.90
10336;DHT22;5213;53.548;9.930;2024-03-23T10:03:17;10.40;99.90
10336;DHT22;5213;53.548;9.930;2024-03-23T10:05:43;10.10;99.90
10336;DHT22;5213;53.548;9.930;2024-03-23T10:10:41;11.20;99.90
10336;DHT22;5213;53.548;9.930;2024-03-23T10:13:06;10.40;99.90
10336;DHT22;5213;53.548;9.930;2024-03-23T10:15:36;10.40;99.90
10336;DHT22;5213;53.548;9.930;2024-03-23T10:18:18;10.30;99.90
10336;DHT22;5213;53.548;9.930;2024-03-23T10:21:08;11.20;99.90
10336;DHT22;5213;53.548;9.930;2024-03-23T10:23:34;10.70;99.90
10336;DHT22;5213;53.548;9.930;2024-03-23T10:26:19;11.30;99.90
10336;DHT22;5213;53.548;9.930;2024-03-23T10:29:00;10.80;99.90
10336;DHT22;5213;53.548;9.930;2024-03-23T10:31:36;10.70;99.90
10336;DHT22;5213;53.548;9.930;2024-03-23T10:34:05;10.30;99.90
10336;DHT22;5213;53.548;9.930;2024-03-23T10:36:31;10.10;99.90
10336;DHT22;5213;53.548;9.930;2024-03-23T10:38:56;9.30;99.90
10336;DHT22;5213;53.548;9.930;2024-03-23T10:41:27;9.40;99.90
10336;DHT22;5213;53.548;9.930;2024-03-23T10:43:54;8.40;99.90
10336;DHT22;5213;53.548;9.930;2024-03-23T10:46:21;7.60;99.90
10336;DHT22;5213;53.548;9.930;2024-03-23T10:48:46;7.70;99.90
10336;DHT22;5213;53.548;9.930;2024-03-23T10:51:14;7.80;99.90
10336;DHT22;5213;53.548;9.930;2024-03-23T10:53:40;7.40;99.90
10336;DHT22;5213;53.548;9.930;2024-03-23T10:56:06;7.80;99.90
10336;DHT22;5213;53.548;9.930;2024-03-23T11:01:05;7.80;99.90
10336;DHT22;5213;53.548;9.930;2024-03-23T11:03:33;7.80;99.90
10336;DHT22;5213;53.548;9.930;2024-03-23T11:06:00;8.60;99.90
10336;DHT22;5213;53.548;9.930;2024-03-23T11:13:38;9.00;99.90
10336;DHT22;5213;53.548;9.930;2024-03-23T11:18:39;9.10;99.90
10336;DHT22;5213;53.548;9.930;2024-03-23T11:21:07;9.10;99.90
10336;DHT22;5213;53.548;9.930;2024-03-23T11:23:32;9.20;99.90
10336;DHT22;5213;53.548;9.930;2024-03-23T11:25:58;9.00;99.90
10336;DHT22;5213;53.548;9.930;2024-03-23T11:28:24;8.90;99.90
10336;DHT22;5213;53.548;9.930;2024-03-23T11:30:49;8.80;99.90
10336;DHT22;5213;53.548;9.930;2024-03-23T11:33:15;9.90;99.90
10336;DHT22;5213;53.548;9.930;2024-03-23T11:35:41;8.90;99.90
10336;DHT22;5213;53.548;9.930;2024-03-23T11:38:09;9.00;99.90
10336;DHT22;5213;53.548;9.930;2024-03-23T11:40:37;9.00;99.90
10336;DHT22;5213;53.548;9.930;2024-03-23T11:43:04;9.40;99.90
10336;DHT22;5213;53.548;9.930;2024-03-23T11:45:35;9.70;99.90
10336;DHT22;5213;53.548;9.930;2024-03-23T11:48:03;10.30;99.90
10336;DHT22;5213;53.548;9.930;2024-03-23T11:50:28;10.50;99.90
10336;DHT22;5213;53.548;9.930;2024-03-23T11:55:50;11.20;99.90
10336;DHT22;5213;53.548;9.930;2024-03-23T11:58:18;11.40;91.50
10336;DHT22;5213;53.548;9.930;2024-03-23T12:00:54;11.60;95.20
10336;DHT22;5213;53.548;9.930;2024-03-23T12:03:20;11.00;99.90
10336;DHT22;5213;53.548;9.930;2024-03-23T12:05:51;9.60;99.90
10336;DHT22;5213;53.548;9.930;2024-03-23T12:11:27;8.30;99.90
10336;DHT22;5213;53.548;9.930;2024-03-23T12:13:52;8.50;99.90
10336;DHT22;5213;53.548;9.930;2024-03-23T12:16:24;9.10;99.90
10336;DHT22;5213;53.548;9.930;2024-03-23T12:18:52;8.90;99.90
10336;DHT22;5213;53.548;9.930;2024-03-23T12:21:18;9.40;99.90
10336;DHT22;5213;53.548;9.930;2024-03-23T12:23:44;8.60;99.90
10336;DHT22;5213;53.548;9.930;2024-03-23T12:26:12;8.80;99.90
10336;DHT22;5213;53.548;9.930;2024-03-23T12:28:37;7.90;99.90
10336;DHT22;5213;53.548;9.930;2024-03-23T12:31:04;7.70;99.90
10336;DHT22;5213;53.548;9.930;2024-03-23T12:33:30;7.90;99.90
10336;DHT22;5213;53.548;9.930;2024-03-23T12:35:55;8.20;99.90
10336;DHT22;5213;53.548;9.930;2024-03-23T12:38:21;8.70;99.90
10336;DHT22;5213;53.548;9.930;2024-03-23T12:40:47;7.80;99.90
10336;DHT22;5213;53.548;9.930;2024-03-23T12:43:14;7.20;99.90
10336;DHT22;5213;53.548;9.930;2024-03-23T12:45:39;6.50;99.90
10336;DHT22;5213;53.548;9.930;2024-03-23T12:48:05;6.20;99.90
10336;DHT22;5213;53.548;9.930;2024-03-23T12:50:31;6.20;99.90
10336;DHT22;5213;53.548;9.930;2024-03-23T12:52:57;6.20;99.90
10336;DHT22;5213;53.548;9.930;2024-03-23T12:55:23;5.80;99.90
10336;DHT22;5213;53.548;9.930;2024-03-23T12:57:48;5.90;99.90
10336;DHT22;5213;53.548;9.930;2024-03-23T13:00:14;6.70;99.90
10336;DHT22;5213;53.548;9.930;2024-03-23T13:02:42;6.00;99.90
10336;DHT22;5213;53.548;9.930;2024-03-23T13:05:07;6.10;99.90
10336;DHT22;5213;53.548;9.930;2024-03-23T13:07:34;6.40;99.90
10336;DHT22;5213;53.548;9.930;2024-03-23T13:10:01;6.50;99.90
10336;DHT22;5213;53.548;9.930;2024-03-23T13:12:27;6.60;99.90
10336;DHT22;5213;53.548;9.930;2024-03-23T13:14:53;6.80;99.90
10336;DHT22;5213;53.548;9.930;2024-03-23T13:17:18;7.00;99.90
10336;DHT22;5213;53.548;9.930;2024-03-23T13:19:44;7.20;99.90
10336;DHT22;5213;53.548;9.930;2024-03-23T13:22:10;7.30;99.90
10336;DHT22;5213;53.548;9.930;2024-03-23T13:24:38;7.30;99.90
10336;DHT22;5213;53.548;9.930;2024-03-23T13:27:04;7.80;99.90
10336;DHT22;5213;53.548;9.930;2024-03-23T13:29:33;7.30;99.90
10336;DHT22;5213;53.548;9.930;2024-03-23T13:32:00;7.20;99.90
10336;DHT22;5213;53.548;9.930;2024-03-23T13:34:26;7.30;99.90
10336;DHT22;5213;53.548;9.930;2024-03-23T13:36:51;7.60;99.90
10336;DHT22;5213;53.548;9.930;2024-03-23T13:39:17;7.20;99.90
10336;DHT22;5213;53.548;9.930;2024-03-23T13:41:44;7.40;99.90
10336;DHT22;5213;53.548;9.930;2024-03-23T13:44:11;7.70;99.90
10336;DHT22;5213;53.548;9.930;2024-03-23T13:46:37;7.60;99.90
10336;DHT22;5213;53.548;9.930;2024-03-23T13:49:04;7.70;99.90
10336;DHT22;5213;53.548;9.930;2024-03-23T13:51:30;7.70;99.90
10336;DHT22;5213;53.548;9.930;2024-03-23T13:53:56;8.20;99.90
10336;DHT22;5213;53.548;9.930;2024-03-23T13:56:22;7.70;99.90
10336;DHT22;5213;53.548;9.930;2024-03-23T13:58:48;8.10;99.90
10336;DHT22;5213;53.548;9.930;2024-03-23T14:01:14;8.70;99.90
10336;DHT22;5213;53.548;9.930;2024-03-23T14:03:41;8.20;99.90
10336;DHT22;5213;53.548;9.930;2024-03-23T14:06:07;8.70;99.90
10336;DHT22;5213;53.548;9.930;2024-03-23T14:08:34;8.50;99.90
10336;DHT22;5213;53.548;9.930;2024-03-23T14:11:02;9.00;99.90
10336;DHT22;5213;53.548;9.930;2024-03-23T14:13:28;8.50;99.90
10336;DHT22;5213;53.548;9.930;2024-03-23T14:15:54;8.40;99.90
10336;DHT22;5213;53.548;9.930;2024-03-23T14:18:29;8.30;99.90
10336;DHT22;5213;53.548;9.930;2024-03-23T14:20:59;8.20;99.90
10336;DHT22;5213;53.548;9.930;2024-03-23T14:23:26;8.10;99.90
10336;DHT22;5213;53.548;9.930;2024-03-23T14:25:53;8.40;99.90
10336;DHT22;5213;53.548;9.930;2024-03-23T14:28:19;8.30;99.90
10336;DHT22;5213;53.548;9.930;2024-03-23T14:30:45;8.20;99.90
10336;DHT22;5213;53.548;9.930;2024-03-23T14:33:10;8.20;99.90
10336;DHT22;5213;53.548;9.930;2024-03-23T14:35:36;8.30;99.90
10336;DHT22;5213;53.548;9.930;2024-03-23T14:38:03;8.40;99.90
10336;DHT22;5213;53.548;9.930;2024-03-23T14:40:29;8.70;99.90
10336;DHT22;5213;53.548;9.930;2024-03-23T14:42:55;8.70;99.90
10336;DHT22;5213;53.548;9.930;2024-03-23T14:45:21;8.70;99.90
10336;DHT22;5213;53.548;9.930;2024-03-23T14:47:47;8.70;99.90
10336;DHT22;5213;53.548;9.930;2024-03-23T14:50:13;8.40;99.90
10336;DHT22;5213;53.548;9.930;2024-03-23T14:52:45;8.50;99.90
10336;DHT22;5213;53.548;9.930;2024-03-23T14:55:11;8.40;99.90
10336;DHT22;5213;53.548;9.930;2024-03-23T14:57:37;8.30;99.90
10336;DHT22;5213;53.548;9.930;2024-03-23T15:00:08;7.20;99.90
10336;DHT22;5213;53.548;9.930;2024-03-23T15:02:37;6.80;99.90
10336;DHT22;5213;53.548;9.930;2024-03-23T15:05:02;6.60;99.90
10336;DHT22;5213;53.548;9.930;2024-03-23T15:07:33;6.70;99.90
10336;DHT22;5213;53.548;9.930;2024-03-23T15:09:58;6.40;99.90
10336;DHT22;5213;53.548;9.930;2024-03-23T15:12:24;6.30;99.90
10336;DHT22;5213;53.548;9.930;2024-03-23T15:14:50;6.90;99.90
10336;DHT22;5213;53.548;9.930;2024-03-23T15:17:16;7.30;99.90
10336;DHT22;5213;53.548;9.930;2024-03-23T15:19:41;6.50;99.90
10336;DHT22;5213;53.548;9.930;2024-03-23T15:22:08;7.60;99.90
10336;DHT22;5213;53.548;9.930;2024-03-23T15:24:34;7.00;99.90
10336;DHT22;5213;53.548;9.930;2024-03-23T15:27:01;7.00;99.90
10336;DHT22;5213;53.548;9.930;2024-03-23T15:29:27;7.20;99.90
10336;DHT22;5213;53.548;9.930;2024-03-23T15:31:52;6.80;99.90
10336;DHT22;5213;53.548;9.930;2024-03-23T15:34:19;6.70;99.90
10336;DHT22;5213;53.548;9.930;2024-03-23T15:36:47;6.60;99.90
10336;DHT22;5213;53.548;9.930;2024-03-23T15:39:14;6.30;99.90
10336;DHT22;5213;53.548;9.930;2024-03-23T15:41:40;6.50;1.00
10336;DHT22;5213;53.548;9.930;2024-03-23T15:44:06;6.20;1.00
10336;DHT22;5213;53.548;9.930;2024-03-23T15:46:31;6.40;1.00
10336;DHT22;5213;53.548;9.930;2024-03-23T15:48:57;6.60;99.90
10336;DHT22;5213;53.548;9.930;2024-03-23T15:51:23;6.60;99.90
10336;DHT22;5213;53.548;9.930;2024-03-23T15:53:49;7.10;99.90
10336;DHT22;5213;53.548;9.930;2024-03-23T15:56:17;7.00;99.90
10336;DHT22;5213;53.548;9.930;2024-03-23T15:58:43;7.00;99.90
10336;DHT22;5213;53.548;9.930;2024-03-23T16:01:09;7.20;99.90
10336;DHT22;5213;53.548;9.930;2024-03-23T16:03:36;7.70;99.90
10336;DHT22;5213;53.548;9.930;2024-03-23T16:06:03;7.20;99.90
10336;DHT22;5213;53.548;9.930;2024-03-23T16:08:29;7.40;99.90
10336;DHT22;5213;53.548;9.930;2024-03-23T16:11:03;7.30;99.90
10336;DHT22;5213;53.548;9.930;2024-03-23T16:13:29;8.00;99.90
10336;DHT22;5213;53.548;9.930;2024-03-23T16:15:58;7.10;99.90
10336;DHT22;5213;53.548;9.930;2024-03-23T16:18:25;7.00;99.90
10336;DHT22;5213;53.548;9.930;2024-03-23T16:20:58;7.00;99.90
10336;DHT22;5213;53.548;9.930;2024-03-23T16:23:25;7.20;99.90
10336;DHT22;5213;53.548;9.930;2024-03-23T16:25:51;7.60;99.90
10336;DHT22;5213;53.548;9.930;2024-03-23T16:28:27;7.40;99.90
10336;DHT22;5213;53.548;9.930;2024-03-23T16:33:23;7.20;99.90
10336;DHT22;5213;53.548;9.930;2024-03-23T16:35:56;7.20;99.90
10336;DHT22;5213;53.548;9.930;2024-03-23T16:38:22;7.40;99.90
10336;DHT22;5213;53.548;9.930;2024-03-23T16:41:01;7.30;99.90
10336;DHT22;5213;53.548;9.930;2024-03-23T16:43:34;7.10;99.90
10336;DHT22;5213;53.548;9.930;2024-03-23T16:46:04;7.10;99.90
10336;DHT22;5213;53.548;9.930;2024-03-23T16:48:31;7.00;99.90
10336;DHT22;5213;53.548;9.930;2024-03-23T16:50:58;6.60;99.90
10336;DHT22;5213;53.548;9.930;2024-03-23T16:53:26;6.70;99.90
10336;DHT22;5213;53.548;9.930;2024-03-23T16:56:05;6.70;99.90
10336;DHT22;5213;53.548;9.930;2024-03-23T16:58:38;6.80;99.90
10336;DHT22;5213;53.548;9.930;2024-03-23T17:01:06;6.80;99.90
10336;DHT22;5213;53.548;9.930;2024-03-23T17:03:38;6.50;99.90
10336;DHT22;5213;53.548;9.930;2024-03-23T17:06:05;6.70;99.90
10336;DHT22;5213;53.548;9.930;2024-03-23T17:08:32;6.50;99.90
10336;DHT22;5213;53.548;9.930;2024-03-23T17:11:03;6.70;99.90
10336;DHT22;5213;53.548;9.930;2024-03-23T17:13:31;6.30;99.90
10336;DHT22;5213;53.548;9.930;2024-03-23T17:15:57;6.60;99.90